sensor_id;sensor_type;location;lat;lon;timestamp;P1;durP1;ratioP1;P2;durP2;ratioP2
76357;SDS011;65185;21.060;105.826;2022-12-18T00:01:17;29.00;;;10.85;;
76357;SDS011;65185;21.060;105.826;2022-12-18T00:03:46;27.50;;;11.45;;
76357;SDS011;65185;21.060;105.826;2022-12-18T00:06:13;30.35;;;11.70;;
76357;SDS011;65185;21.060;105.826;2022-12-18T00:08:41;32.92;;;11.35;;
76357;SDS011;65185;21.060;105.826;2022-12-18T00:11:10;30.27;;;10.63;;
76357;SDS011;65185;21.060;105.826;2022-12-18T00:13:39;31.85;;;11.15;;
76357;SDS011;65185;21.060;105.826;2022-12-18T00:16:07;27.33;;;11.18;;
76357;SDS011;65185;21.060;105.826;2022-12-18T00:18:38;28.58;;;11.10;;
76357;SDS011;65185;21.060;105.826;2022-12-18T00:21:06;32.42;;;10.52;;
76357;SDS011;65185;21.060;105.826;2022-12-18T00:23:34;38.08;;;11.43;;
76357;SDS011;65185;21.060;105.826;2022-12-18T00:26:03;27.35;;;11.70;;
76357;SDS011;65185;21.060;105.826;2022-12-18T00:28:31;32.90;;;11.70;;
76357;SDS011;65185;21.060;105.826;2022-12-18T00:31:05;29.80;;;10.00;;
76357;SDS011;65185;21.060;105.826;2022-12-18T00:33:40;26.92;;;10.30;;
76357;SDS011;65185;21.060;105.826;2022-12-18T00:36:10;26.45;;;11.25;;
76357;SDS011;65185;21.060;105.826;2022-12-18T00:38:45;33.38;;;11.65;;
76357;SDS011;65185;21.060;105.826;2022-12-18T00:41:15;33.50;;;12.35;;
76357;SDS011;65185;21.060;105.826;2022-12-18T00:44:02;32.08;;;12.23;;
76357;SDS011;65185;21.060;105.826;2022-12-18T00:46:30;26.88;;;12.32;;
76357;SDS011;65185;21.060;105.826;2022-12-18T00:48:57;29.92;;;12.30;;
76357;SDS011;65185;21.060;105.826;2022-12-18T00:51:24;37.40;;;13.45;;
76357;SDS011;65185;21.060;105.826;2022-12-18T00:53:52;31.25;;;13.15;;
76357;SDS011;65185;21.060;105.826;2022-12-18T00:56:19;32.10;;;13.60;;
76357;SDS011;65185;21.060;105.826;2022-12-18T00:58:46;29.48;;;12.38;;
76357;SDS011;65185;21.060;105.826;2022-12-18T01:01:12;29.98;;;13.00;;
76357;SDS011;65185;21.060;105.826;2022-12-18T01:03:40;31.70;;;13.20;;
76357;SDS011;65185;21.060;105.826;2022-12-18T01:06:07;29.75;;;12.38;;
76357;SDS011;65185;21.060;105.826;2022-12-18T01:08:35;33.85;;;12.23;;
76357;SDS011;65185;21.060;105.826;2022-12-18T01:11:09;33.47;;;11.68;;
76357;SDS011;65185;21.060;105.826;2022-12-18T01:13:38;35.35;;;12.95;;
76357;SDS011;65185;21.060;105.826;2022-12-18T01:16:05;31.75;;;12.02;;
76357;SDS011;65185;21.060;105.826;2022-12-18T01:18:34;26.88;;;10.55;;
76357;SDS011;65185;21.060;105.826;2022-12-18T01:21:05;32.25;;;12.98;;
76357;SDS011;65185;21.060;105.826;2022-12-18T01:23:33;26.48;;;12.52;;
76357;SDS011;65185;21.060;105.826;2022-12-18T01:26:04;33.75;;;13.63;;
76357;SDS011;65185;21.060;105.826;2022-12-18T01:28:35;32.72;;;13.20;;
76357;SDS011;65185;21.060;105.826;2022-12-18T01:33:41;34.28;;;13.57;;
76357;SDS011;65185;21.060;105.826;2022-12-18T01:36:13;34.63;;;13.75;;
76357;SDS011;65185;21.060;105.826;2022-12-18T01:38:44;27.48;;;12.48;;
76357;SDS011;65185;21.060;105.826;2022-12-18T01:41:12;33.05;;;13.13;;
76357;SDS011;65185;21.060;105.826;2022-12-18T01:43:47;33.45;;;12.52;;
76357;SDS011;65185;21.060;105.826;2022-12-18T01:46:18;39.20;;;12.70;;
76357;SDS011;65185;21.060;105.826;2022-12-18T01:48:47;27.58;;;11.40;;
76357;SDS011;65185;21.060;105.826;2022-12-18T01:51:16;32.72;;;11.52;;
76357;SDS011;65185;21.060;105.826;2022-12-18T01:53:43;29.30;;;11.90;;
76357;SDS011;65185;21.060;105.826;2022-12-18T01:56:13;30.98;;;13.02;;
76357;SDS011;65185;21.060;105.826;2022-12-18T02:01:15;30.00;;;12.50;;
76357;SDS011;65185;21.060;105.826;2022-12-18T02:03:42;33.28;;;12.70;;
76357;SDS011;65185;21.060;105.826;2022-12-18T02:08:58;29.38;;;12.77;;
76357;SDS011;65185;21.060;105.826;2022-12-18T02:14:19;27.02;;;12.23;;
76357;SDS011;65185;21.060;105.826;2022-12-18T02:17:00;28.75;;;12.05;;
76357;SDS011;65185;21.060;105.826;2022-12-18T02:25:43;30.48;;;12.23;;
76357;SDS011;65185;21.060;105.826;2022-12-18T02:28:15;32.38;;;10.35;;
76357;SDS011;65185;21.060;105.826;2022-12-18T02:30:45;25.23;;;10.98;;
76357;SDS011;65185;21.060;105.826;2022-12-18T02:33:15;28.90;;;10.95;;
76357;SDS011;65185;21.060;105.826;2022-12-18T02:35:44;35.20;;;11.27;;
76357;SDS011;65185;21.060;105.826;2022-12-18T02:38:12;35.97;;;12.30;;
76357;SDS011;65185;21.060;105.826;2022-12-18T02:40:41;32.55;;;12.80;;
76357;SDS011;65185;21.060;105.826;2022-12-18T02:43:10;34.35;;;13.30;;
76357;SDS011;65185;21.060;105.826;2022-12-18T02:45:49;22.33;;;12.23;;
76357;SDS011;65185;21.060;105.826;2022-12-18T02:48:20;27.05;;;11.90;;
76357;SDS011;65185;21.060;105.826;2022-12-18T02:51:39;33.58;;;12.07;;
76357;SDS011;65185;21.060;105.826;2022-12-18T02:54:01;28.50;;;11.07;;
76357;SDS011;65185;21.060;105.826;2022-12-18T02:56:46;31.73;;;11.10;;
76357;SDS011;65185;21.060;105.826;2022-12-18T02:59:19;26.65;;;11.73;;
76357;SDS011;65185;21.060;105.826;2022-12-18T03:02:27;33.33;;;13.05;;
76357;SDS011;65185;21.060;105.826;2022-12-18T03:06:12;24.63;;;11.88;;
76357;SDS011;65185;21.060;105.826;2022-12-18T03:08:41;27.10;;;12.15;;
76357;SDS011;65185;21.060;105.826;2022-12-18T03:11:13;28.45;;;11.60;;
76357;SDS011;65185;21.060;105.826;2022-12-18T03:13:42;26.50;;;12.40;;
76357;SDS011;65185;21.060;105.826;2022-12-18T03:16:15;36.80;;;12.25;;
76357;SDS011;65185;21.060;105.826;2022-12-18T03:18:58;32.78;;;12.13;;
76357;SDS011;65185;21.060;105.826;2022-12-18T03:21:32;33.47;;;13.63;;
76357;SDS011;65185;21.060;105.826;2022-12-18T03:24:06;28.08;;;11.77;;
76357;SDS011;65185;21.060;105.826;2022-12-18T03:26:35;28.02;;;12.52;;
76357;SDS011;65185;21.060;105.826;2022-12-18T03:29:12;30.83;;;13.05;;
76357;SDS011;65185;21.060;105.826;2022-12-18T03:31:56;33.80;;;12.98;;
76357;SDS011;65185;21.060;105.826;2022-12-18T03:34:33;31.48;;;14.05;;
76357;SDS011;65185;21.060;105.826;2022-12-18T03:37:04;34.55;;;14.68;;
76357;SDS011;65185;21.060;105.826;2022-12-18T03:39:32;39.15;;;14.23;;
76357;SDS011;65185;21.060;105.826;2022-12-18T03:47:30;34.85;;;14.35;;
76357;SDS011;65185;21.060;105.826;2022-12-18T03:52:48;31.55;;;14.10;;
76357;SDS011;65185;21.060;105.826;2022-12-18T03:55:36;32.35;;;13.77;;
76357;SDS011;65185;21.060;105.826;2022-12-18T03:58:04;45.15;;;15.70;;
76357;SDS011;65185;21.060;105.826;2022-12-18T04:00:33;33.95;;;14.90;;
76357;SDS011;65185;21.060;105.826;2022-12-18T04:03:01;37.42;;;15.88;;
76357;SDS011;65185;21.060;105.826;2022-12-18T04:05:30;32.22;;;15.10;;
76357;SDS011;65185;21.060;105.826;2022-12-18T04:08:00;39.45;;;15.63;;
76357;SDS011;65185;21.060;105.826;2022-12-18T04:10:28;46.22;;;16.92;;
76357;SDS011;65185;21.060;105.826;2022-12-18T04:12:55;37.85;;;15.65;;
76357;SDS011;65185;21.060;105.826;2022-12-18T04:15:23;31.65;;;14.63;;
76357;SDS011;65185;21.060;105.826;2022-12-18T04:17:50;43.97;;;16.13;;
76357;SDS011;65185;21.060;105.826;2022-12-18T04:20:17;42.40;;;15.32;;
76357;SDS011;65185;21.060;105.826;2022-12-18T04:22:44;38.65;;;15.93;;
76357;SDS011;65185;21.060;105.826;2022-12-18T04:25:11;29.77;;;12.98;;
76357;SDS011;65185;21.060;105.826;2022-12-18T04:27:38;35.22;;;14.55;;
76357;SDS011;65185;21.060;105.826;2022-12-18T04:30:05;36.38;;;15.77;;
76357;SDS011;65185;21.060;105.826;2022-12-18T04:32:33;35.63;;;16.35;;
76357;SDS011;65185;21.060;105.826;2022-12-18T04:35:01;34.38;;;16.48;;
76357;SDS011;65185;21.060;105.826;2022-12-18T04:37:29;28.90;;;14.85;;
76357;SDS011;65185;21.060;105.826;2022-12-18T04:39:56;40.03;;;16.63;;
76357;SDS011;65185;21.060;105.826;2022-12-18T04:42:23;48.80;;;17.33;;
76357;SDS011;65185;21.060;105.826;2022-12-18T04:44:50;40.05;;;15.80;;
76357;SDS011;65185;21.060;105.826;2022-12-18T04:47:16;35.35;;;16.40;;
76357;SDS011;65185;21.060;105.826;2022-12-18T04:49:43;34.80;;;15.10;;
76357;SDS011;65185;21.060;105.826;2022-12-18T04:52:10;41.92;;;15.68;;
76357;SDS011;65185;21.060;105.826;2022-12-18T04:54:37;35.70;;;14.45;;
76357;SDS011;65185;21.060;105.826;2022-12-18T04:57:03;35.25;;;15.05;;
76357;SDS011;65185;21.060;105.826;2022-12-18T04:59:30;35.75;;;14.70;;
76357;SDS011;65185;21.060;105.826;2022-12-18T05:01:57;36.13;;;14.30;;
76357;SDS011;65185;21.060;105.826;2022-12-18T05:04:24;36.63;;;16.30;;
76357;SDS011;65185;21.060;105.826;2022-12-18T05:06:51;36.63;;;18.17;;
76357;SDS011;65185;21.060;105.826;2022-12-18T05:09:17;41.72;;;18.73;;
76357;SDS011;65185;21.060;105.826;2022-12-18T05:11:44;43.78;;;18.83;;
76357;SDS011;65185;21.060;105.826;2022-12-18T05:14:12;36.08;;;17.83;;
76357;SDS011;65185;21.060;105.826;2022-12-18T05:16:39;32.58;;;15.77;;
76357;SDS011;65185;21.060;105.826;2022-12-18T05:19:05;37.45;;;15.18;;
76357;SDS011;65185;21.060;105.826;2022-12-18T05:21:32;36.03;;;14.18;;
76357;SDS011;65185;21.060;105.826;2022-12-18T05:23:59;32.47;;;14.93;;
76357;SDS011;65185;21.060;105.826;2022-12-18T05:26:27;34.28;;;15.15;;
76357;SDS011;65185;21.060;105.826;2022-12-18T05:28:53;35.90;;;17.52;;
76357;SDS011;65185;21.060;105.826;2022-12-18T05:31:20;35.60;;;15.82;;
76357;SDS011;65185;21.060;105.826;2022-12-18T05:33:47;36.50;;;16.30;;
76357;SDS011;65185;21.060;105.826;2022-12-18T05:36:14;41.08;;;17.35;;
76357;SDS011;65185;21.060;105.826;2022-12-18T05:38:41;41.42;;;15.82;;
76357;SDS011;65185;21.060;105.826;2022-12-18T05:41:08;39.03;;;15.90;;
76357;SDS011;65185;21.060;105.826;2022-12-18T05:43:36;32.42;;;14.43;;
76357;SDS011;65185;21.060;105.826;2022-12-18T05:46:08;33.58;;;14.82;;
76357;SDS011;65185;21.060;105.826;2022-12-18T05:48:39;35.05;;;15.13;;
76357;SDS011;65185;21.060;105.826;2022-12-18T05:51:07;32.00;;;15.07;;
76357;SDS011;65185;21.060;105.826;2022-12-18T05:56:07;31.70;;;14.13;;
76357;SDS011;65185;21.060;105.826;2022-12-18T05:58:36;34.33;;;14.57;;
76357;SDS011;65185;21.060;105.826;2022-12-18T06:01:07;31.45;;;13.68;;
76357;SDS011;65185;21.060;105.826;2022-12-18T06:03:36;31.92;;;14.30;;
76357;SDS011;65185;21.060;105.826;2022-12-18T06:06:04;41.95;;;19.27;;
76357;SDS011;65185;21.060;105.826;2022-12-18T06:08:38;32.22;;;16.48;;
76357;SDS011;65185;21.060;105.826;2022-12-18T06:11:05;35.05;;;15.68;;
76357;SDS011;65185;21.060;105.826;2022-12-18T06:13:32;33.03;;;14.70;;
76357;SDS011;65185;21.060;105.826;2022-12-18T06:16:01;36.35;;;15.05;;
76357;SDS011;65185;21.060;105.826;2022-12-18T06:18:32;34.35;;;14.13;;
76357;SDS011;65185;21.060;105.826;2022-12-18T06:20:59;31.42;;;15.40;;
76357;SDS011;65185;21.060;105.826;2022-12-18T06:23:27;30.92;;;15.40;;
76357;SDS011;65185;21.060;105.826;2022-12-18T06:25:54;40.25;;;16.92;;
76357;SDS011;65185;21.060;105.826;2022-12-18T06:28:21;32.20;;;14.73;;
76357;SDS011;65185;21.060;105.826;2022-12-18T06:30:48;30.50;;;14.80;;
76357;SDS011;65185;21.060;105.826;2022-12-18T06:33:16;33.20;;;14.48;;
76357;SDS011;65185;21.060;105.826;2022-12-18T06:35:43;31.45;;;13.82;;
76357;SDS011;65185;21.060;105.826;2022-12-18T06:38:10;30.90;;;13.55;;
76357;SDS011;65185;21.060;105.826;2022-12-18T06:40:38;36.50;;;13.23;;
76357;SDS011;65185;21.060;105.826;2022-12-18T06:43:05;32.00;;;14.00;;
76357;SDS011;65185;21.060;105.826;2022-12-18T06:45:33;29.63;;;12.85;;
76357;SDS011;65185;21.060;105.826;2022-12-18T06:48:00;25.48;;;12.18;;
76357;SDS011;65185;21.060;105.826;2022-12-18T06:50:26;27.60;;;12.73;;
76357;SDS011;65185;21.060;105.826;2022-12-18T06:52:54;28.20;;;13.65;;
76357;SDS011;65185;21.060;105.826;2022-12-18T06:55:24;30.17;;;12.95;;
76357;SDS011;65185;21.060;105.826;2022-12-18T06:57:51;36.28;;;13.02;;
76357;SDS011;65185;21.060;105.826;2022-12-18T07:00:18;28.27;;;12.90;;
76357;SDS011;65185;21.060;105.826;2022-12-18T07:02:45;27.15;;;10.70;;
76357;SDS011;65185;21.060;105.826;2022-12-18T07:05:11;31.42;;;12.77;;
76357;SDS011;65185;21.060;105.826;2022-12-18T07:07:38;30.17;;;13.20;;
76357;SDS011;65185;21.060;105.826;2022-12-18T07:10:05;27.83;;;13.07;;
76357;SDS011;65185;21.060;105.826;2022-12-18T07:12:33;24.95;;;11.30;;
76357;SDS011;65185;21.060;105.826;2022-12-18T07:14:59;28.35;;;12.68;;
76357;SDS011;65185;21.060;105.826;2022-12-18T07:17:26;37.88;;;14.95;;
76357;SDS011;65185;21.060;105.826;2022-12-18T07:19:55;35.85;;;14.75;;
76357;SDS011;65185;21.060;105.826;2022-12-18T07:22:22;40.00;;;16.15;;
76357;SDS011;65185;21.060;105.826;2022-12-18T07:24:50;31.77;;;14.82;;
76357;SDS011;65185;21.060;105.826;2022-12-18T07:27:17;32.53;;;14.13;;
76357;SDS011;65185;21.060;105.826;2022-12-18T07:29:44;33.65;;;13.57;;
76357;SDS011;65185;21.060;105.826;2022-12-18T07:32:11;30.08;;;13.95;;
76357;SDS011;65185;21.060;105.826;2022-12-18T07:34:38;28.48;;;14.30;;
76357;SDS011;65185;21.060;105.826;2022-12-18T07:37:04;28.67;;;14.30;;
76357;SDS011;65185;21.060;105.826;2022-12-18T07:39:31;36.95;;;14.93;;
76357;SDS011;65185;21.060;105.826;2022-12-18T07:41:58;35.60;;;15.65;;
76357;SDS011;65185;21.060;105.826;2022-12-18T07:44:43;31.98;;;15.23;;
76357;SDS011;65185;21.060;105.826;2022-12-18T07:47:09;31.67;;;15.77;;
76357;SDS011;65185;21.060;105.826;2022-12-18T07:49:36;36.25;;;16.25;;
76357;SDS011;65185;21.060;105.826;2022-12-18T07:52:03;33.78;;;15.23;;
76357;SDS011;65185;21.060;105.826;2022-12-18T07:54:31;28.67;;;14.00;;
76357;SDS011;65185;21.060;105.826;2022-12-18T07:56:58;37.53;;;18.70;;
76357;SDS011;65185;21.060;105.826;2022-12-18T07:59:26;50.78;;;23.63;;
76357;SDS011;65185;21.060;105.826;2022-12-18T08:01:53;38.90;;;20.60;;
76357;SDS011;65185;21.060;105.826;2022-12-18T08:04:19;43.67;;;22.65;;
76357;SDS011;65185;21.060;105.826;2022-12-18T08:06:46;44.72;;;23.02;;
76357;SDS011;65185;21.060;105.826;2022-12-18T08:09:13;49.35;;;23.35;;
76357;SDS011;65185;21.060;105.826;2022-12-18T08:11:40;44.72;;;21.20;;
76357;SDS011;65185;21.060;105.826;2022-12-18T08:14:07;36.72;;;18.70;;
76357;SDS011;65185;21.060;105.826;2022-12-18T08:16:34;36.25;;;17.33;;
76357;SDS011;65185;21.060;105.826;2022-12-18T08:19:02;34.20;;;16.50;;
76357;SDS011;65185;21.060;105.826;2022-12-18T08:21:30;31.17;;;14.93;;
76357;SDS011;65185;21.060;105.826;2022-12-18T08:23:59;32.60;;;16.15;;
76357;SDS011;65185;21.060;105.826;2022-12-18T08:26:27;40.33;;;16.00;;
76357;SDS011;65185;21.060;105.826;2022-12-18T08:28:56;40.13;;;17.17;;
76357;SDS011;65185;21.060;105.826;2022-12-18T08:31:25;49.47;;;17.15;;
76357;SDS011;65185;21.060;105.826;2022-12-18T08:33:53;37.42;;;16.13;;
76357;SDS011;65185;21.060;105.826;2022-12-18T08:36:21;33.35;;;15.15;;
76357;SDS011;65185;21.060;105.826;2022-12-18T08:38:48;33.38;;;14.75;;
76357;SDS011;65185;21.060;105.826;2022-12-18T08:41:16;38.65;;;15.93;;
76357;SDS011;65185;21.060;105.826;2022-12-18T08:43:43;34.83;;;13.57;;
76357;SDS011;65185;21.060;105.826;2022-12-18T08:46:31;30.98;;;14.27;;
76357;SDS011;65185;21.060;105.826;2022-12-18T08:49:00;34.15;;;14.65;;
76357;SDS011;65185;21.060;105.826;2022-12-18T08:51:28;37.03;;;15.50;;
76357;SDS011;65185;21.060;105.826;2022-12-18T08:53:54;39.08;;;15.93;;
76357;SDS011;65185;21.060;105.826;2022-12-18T08:56:21;30.80;;;14.95;;
76357;SDS011;65185;21.060;105.826;2022-12-18T08:58:50;27.65;;;13.75;;
76357;SDS011;65185;21.060;105.826;2022-12-18T09:01:18;30.95;;;15.20;;
76357;SDS011;65185;21.060;105.826;2022-12-18T09:03:50;34.38;;;14.82;;
76357;SDS011;65185;21.060;105.826;2022-12-18T09:06:18;28.98;;;14.68;;
76357;SDS011;65185;21.060;105.826;2022-12-18T09:08:46;29.50;;;14.75;;
76357;SDS011;65185;21.060;105.826;2022-12-18T09:11:14;29.13;;;13.07;;
76357;SDS011;65185;21.060;105.826;2022-12-18T09:13:52;31.77;;;14.48;;
76357;SDS011;65185;21.060;105.826;2022-12-18T09:16:20;28.63;;;14.38;;
76357;SDS011;65185;21.060;105.826;2022-12-18T09:18:48;31.92;;;14.93;;
76357;SDS011;65185;21.060;105.826;2022-12-18T09:21:16;34.90;;;14.93;;
76357;SDS011;65185;21.060;105.826;2022-12-18T09:23:54;38.05;;;19.65;;
76357;SDS011;65185;21.060;105.826;2022-12-18T09:26:22;34.97;;;18.33;;
76357;SDS011;65185;21.060;105.826;2022-12-18T09:28:50;43.65;;;17.08;;
76357;SDS011;65185;21.060;105.826;2022-12-18T09:31:18;33.42;;;16.75;;
76357;SDS011;65185;21.060;105.826;2022-12-18T09:33:46;46.88;;;19.38;;
76357;SDS011;65185;21.060;105.826;2022-12-18T09:36:15;36.65;;;18.92;;
76357;SDS011;65185;21.060;105.826;2022-12-18T09:44:18;36.38;;;18.58;;
76357;SDS011;65185;21.060;105.826;2022-12-18T09:46:51;43.38;;;20.63;;
76357;SDS011;65185;21.060;105.826;2022-12-18T09:49:27;40.40;;;18.88;;
76357;SDS011;65185;21.060;105.826;2022-12-18T09:52:19;47.33;;;21.13;;
76357;SDS011;65185;21.060;105.826;2022-12-18T09:57:39;41.42;;;19.48;;
76357;SDS011;65185;21.060;105.826;2022-12-18T10:00:17;43.40;;;21.30;;
76357;SDS011;65185;21.060;105.826;2022-12-18T10:02:47;40.85;;;22.15;;
76357;SDS011;65185;21.060;105.826;2022-12-18T10:05:28;45.88;;;22.60;;
76357;SDS011;65185;21.060;105.826;2022-12-18T10:08:29;51.42;;;26.85;;
76357;SDS011;65185;21.060;105.826;2022-12-18T10:13:57;53.92;;;28.05;;
76357;SDS011;65185;21.060;105.826;2022-12-18T10:19:39;50.63;;;26.05;;
76357;SDS011;65185;21.060;105.826;2022-12-18T10:28:13;43.88;;;23.83;;
76357;SDS011;65185;21.060;105.826;2022-12-18T10:30:42;48.20;;;24.85;;
76357;SDS011;65185;21.060;105.826;2022-12-18T10:33:10;45.42;;;23.40;;
76357;SDS011;65185;21.060;105.826;2022-12-18T10:35:43;46.75;;;24.42;;
76357;SDS011;65185;21.060;105.826;2022-12-18T10:41:03;53.08;;;25.23;;
76357;SDS011;65185;21.060;105.826;2022-12-18T10:51:29;62.45;;;31.38;;
76357;SDS011;65185;21.060;105.826;2022-12-18T10:54:05;72.03;;;34.22;;
76357;SDS011;65185;21.060;105.826;2022-12-18T10:56:47;67.35;;;33.72;;
76357;SDS011;65185;21.060;105.826;2022-12-18T10:59:15;61.35;;;33.17;;
76357;SDS011;65185;21.060;105.826;2022-12-18T11:04:27;69.13;;;35.72;;
76357;SDS011;65185;21.060;105.826;2022-12-18T11:07:01;75.93;;;37.10;;
76357;SDS011;65185;21.060;105.826;2022-12-18T11:09:36;71.72;;;34.22;;
76357;SDS011;65185;21.060;105.826;2022-12-18T11:12:18;70.90;;;36.78;;
76357;SDS011;65185;21.060;105.826;2022-12-18T11:14:50;83.00;;;37.63;;
76357;SDS011;65185;21.060;105.826;2022-12-18T11:20:06;67.80;;;36.88;;
76357;SDS011;65185;21.060;105.826;2022-12-18T11:22:59;77.60;;;37.80;;
76357;SDS011;65185;21.060;105.826;2022-12-18T11:25:30;74.40;;;36.50;;
76357;SDS011;65185;21.060;105.826;2022-12-18T11:28:03;68.68;;;33.03;;
76357;SDS011;65185;21.060;105.826;2022-12-18T11:30:33;72.88;;;37.22;;
76357;SDS011;65185;21.060;105.826;2022-12-18T11:38:44;73.35;;;37.97;;
76357;SDS011;65185;21.060;105.826;2022-12-18T11:43:42;72.20;;;39.05;;
76357;SDS011;65185;21.060;105.826;2022-12-18T11:46:23;76.38;;;39.30;;
76357;SDS011;65185;21.060;105.826;2022-12-18T11:48:58;80.93;;;43.30;;
76357;SDS011;65185;21.060;105.826;2022-12-18T11:51:49;82.05;;;44.00;;
76357;SDS011;65185;21.060;105.826;2022-12-18T11:54:38;83.45;;;41.75;;
76357;SDS011;65185;21.060;105.826;2022-12-18T12:00:11;83.88;;;45.42;;
76357;SDS011;65185;21.060;105.826;2022-12-18T12:08:15;98.25;;;55.20;;
76357;SDS011;65185;21.060;105.826;2022-12-18T12:11:02;92.28;;;52.95;;
76357;SDS011;65185;21.060;105.826;2022-12-18T12:16:50;93.72;;;50.67;;
76357;SDS011;65185;21.060;105.826;2022-12-18T12:19:44;96.30;;;50.65;;
76357;SDS011;65185;21.060;105.826;2022-12-18T12:25:36;92.05;;;48.63;;
76357;SDS011;65185;21.060;105.826;2022-12-18T12:30:40;92.88;;;48.10;;
76357;SDS011;65185;21.060;105.826;2022-12-18T12:38:51;100.45;;;51.13;;
76357;SDS011;65185;21.060;105.826;2022-12-18T12:41:27;91.32;;;48.13;;
76357;SDS011;65185;21.060;105.826;2022-12-18T12:44:30;92.20;;;50.38;;
76357;SDS011;65185;21.060;105.826;2022-12-18T12:47:18;97.80;;;51.58;;
76357;SDS011;65185;21.060;105.826;2022-12-18T12:49:52;93.63;;;49.03;;
76357;SDS011;65185;21.060;105.826;2022-12-18T12:52:32;101.55;;;51.92;;
76357;SDS011;65185;21.060;105.826;2022-12-18T12:55:04;101.40;;;52.97;;
76357;SDS011;65185;21.060;105.826;2022-12-18T12:57:43;94.75;;;50.88;;
76357;SDS011;65185;21.060;105.826;2022-12-18T13:00:46;96.60;;;51.17;;
76357;SDS011;65185;21.060;105.826;2022-12-18T13:06:00;92.70;;;49.92;;
76357;SDS011;65185;21.060;105.826;2022-12-18T13:11:31;95.90;;;52.20;;
76357;SDS011;65185;21.060;105.826;2022-12-18T13:16:49;93.28;;;50.15;;
76357;SDS011;65185;21.060;105.826;2022-12-18T13:19:23;90.68;;;46.33;;
76357;SDS011;65185;21.060;105.826;2022-12-18T13:21:53;92.55;;;52.35;;
76357;SDS011;65185;21.060;105.826;2022-12-18T13:24:26;96.10;;;52.75;;
76357;SDS011;65185;21.060;105.826;2022-12-18T13:26:56;100.10;;;55.92;;
76357;SDS011;65185;21.060;105.826;2022-12-18T13:29:43;93.65;;;53.42;;
76357;SDS011;65185;21.060;105.826;2022-12-18T13:32:21;96.18;;;51.70;;
76357;SDS011;65185;21.060;105.826;2022-12-18T13:37:59;94.88;;;51.78;;
76357;SDS011;65185;21.060;105.826;2022-12-18T13:46:05;90.63;;;49.88;;
76357;SDS011;65185;21.060;105.826;2022-12-18T13:51:44;82.43;;;46.67;;
76357;SDS011;65185;21.060;105.826;2022-12-18T13:54:34;85.95;;;45.00;;
76357;SDS011;65185;21.060;105.826;2022-12-18T13:57:25;79.47;;;41.70;;
76357;SDS011;65185;21.060;105.826;2022-12-18T13:59:59;81.63;;;41.67;;
76357;SDS011;65185;21.060;105.826;2022-12-18T14:03:19;77.68;;;41.03;;
76357;SDS011;65185;21.060;105.826;2022-12-18T14:05:55;72.80;;;42.00;;
76357;SDS011;65185;21.060;105.826;2022-12-18T14:08:32;70.32;;;38.20;;
76357;SDS011;65185;21.060;105.826;2022-12-18T14:11:05;80.07;;;42.85;;
76357;SDS011;65185;21.060;105.826;2022-12-18T14:13:45;80.85;;;36.30;;
76357;SDS011;65185;21.060;105.826;2022-12-18T14:16:13;77.45;;;40.03;;
76357;SDS011;65185;21.060;105.826;2022-12-18T14:18:52;83.32;;;41.63;;
76357;SDS011;65185;21.060;105.826;2022-12-18T14:21:23;75.60;;;39.10;;
76357;SDS011;65185;21.060;105.826;2022-12-18T14:26:43;80.55;;;43.88;;
76357;SDS011;65185;21.060;105.826;2022-12-18T14:32:05;88.30;;;49.03;;
76357;SDS011;65185;21.060;105.826;2022-12-18T14:34:49;93.32;;;51.13;;
76357;SDS011;65185;21.060;105.826;2022-12-18T14:37:21;96.35;;;50.22;;
76357;SDS011;65185;21.060;105.826;2022-12-18T14:39:54;101.68;;;54.28;;
76357;SDS011;65185;21.060;105.826;2022-12-18T14:42:29;98.93;;;53.10;;
76357;SDS011;65185;21.060;105.826;2022-12-18T14:48:00;91.22;;;49.40;;
76357;SDS011;65185;21.060;105.826;2022-12-18T14:50:35;93.93;;;50.85;;
76357;SDS011;65185;21.060;105.826;2022-12-18T14:53:02;101.22;;;50.28;;
76357;SDS011;65185;21.060;105.826;2022-12-18T14:55:29;92.20;;;50.33;;
76357;SDS011;65185;21.060;105.826;2022-12-18T14:57:56;103.95;;;49.72;;
76357;SDS011;65185;21.060;105.826;2022-12-18T15:00:24;93.75;;;50.28;;
76357;SDS011;65185;21.060;105.826;2022-12-18T15:02:52;98.15;;;47.22;;
76357;SDS011;65185;21.060;105.826;2022-12-18T15:07:54;95.43;;;51.45;;
76357;SDS011;65185;21.060;105.826;2022-12-18T15:10:23;97.38;;;49.63;;
76357;SDS011;65185;21.060;105.826;2022-12-18T15:23:25;84.28;;;45.47;;
76357;SDS011;65185;21.060;105.826;2022-12-18T15:25:59;81.45;;;43.53;;
76357;SDS011;65185;21.060;105.826;2022-12-18T15:36:20;77.72;;;42.25;;
76357;SDS011;65185;21.060;105.826;2022-12-18T15:38:49;83.30;;;42.92;;
76357;SDS011;65185;21.060;105.826;2022-12-18T15:41:18;84.88;;;44.38;;
76357;SDS011;65185;21.060;105.826;2022-12-18T15:43:47;76.32;;;38.90;;
76357;SDS011;65185;21.060;105.826;2022-12-18T15:46:19;82.57;;;41.30;;
76357;SDS011;65185;21.060;105.826;2022-12-18T15:48:51;69.40;;;34.35;;
76357;SDS011;65185;21.060;105.826;2022-12-18T15:51:20;73.75;;;38.85;;
76357;SDS011;65185;21.060;105.826;2022-12-18T15:53:49;71.78;;;36.88;;
76357;SDS011;65185;21.060;105.826;2022-12-18T15:56:19;76.60;;;36.60;;
76357;SDS011;65185;21.060;105.826;2022-12-18T15:59:08;72.82;;;38.13;;
76357;SDS011;65185;21.060;105.826;2022-12-18T16:04:12;70.72;;;35.90;;
76357;SDS011;65185;21.060;105.826;2022-12-18T16:06:41;70.03;;;37.38;;
76357;SDS011;65185;21.060;105.826;2022-12-18T16:09:08;72.28;;;38.70;;
76357;SDS011;65185;21.060;105.826;2022-12-18T16:11:35;67.93;;;34.25;;
76357;SDS011;65185;21.060;105.826;2022-12-18T16:16:47;71.90;;;38.30;;
76357;SDS011;65185;21.060;105.826;2022-12-18T16:19:16;74.68;;;37.92;;
76357;SDS011;65185;21.060;105.826;2022-12-18T16:21:47;77.28;;;37.63;;
76357;SDS011;65185;21.060;105.826;2022-12-18T16:24:17;75.35;;;38.10;;
76357;SDS011;65185;21.060;105.826;2022-12-18T16:26:47;68.88;;;37.20;;
76357;SDS011;65185;21.060;105.826;2022-12-18T16:29:16;70.55;;;36.80;;
76357;SDS011;65185;21.060;105.826;2022-12-18T16:31:44;76.35;;;35.35;;
76357;SDS011;65185;21.060;105.826;2022-12-18T16:34:24;74.25;;;35.88;;
76357;SDS011;65185;21.060;105.826;2022-12-18T16:36:55;68.50;;;37.00;;
76357;SDS011;65185;21.060;105.826;2022-12-18T16:39:24;68.95;;;34.88;;
76357;SDS011;65185;21.060;105.826;2022-12-18T16:41:51;65.20;;;34.25;;
76357;SDS011;65185;21.060;105.826;2022-12-18T16:44:18;60.20;;;33.67;;
76357;SDS011;65185;21.060;105.826;2022-12-18T16:46:45;67.80;;;36.90;;
76357;SDS011;65185;21.060;105.826;2022-12-18T16:49:13;77.03;;;37.78;;
76357;SDS011;65185;21.060;105.826;2022-12-18T16:51:41;71.03;;;36.20;;